Time;durP1;ratioP1;P1;durP2;ratioP2;P2;SDS_P1;SDS_P2;PMS_P1;PMS_P2;Temp;Humidity;BMP_temperature;BMP_pressure;BME280_temperature;BME280_humidity;BME280_pressure;Samples;Min_cycle;Max_cycle;Signal;HPM_P1;HPM_P2
2021/10/10 00:02:02;;;;;;;29.87;18.37;;;8.20;91.40;;;;;;5053387;28;20584;-69
2021/10/10 00:04:29;;;;;;;28.60;17.97;;;8.10;91.40;;;;;;5058856;28;20625;-68
2021/10/10 00:06:56;;;;;;;28.17;17.20;;;8.10;91.40;;;;;;5052975;28;20202;-67
2021/10/10 00:09:23;;;;;;;28.60;19.53;;;8.10;91.40;;;;;;5053032;28;20758;-68
2021/10/10 00:11:50;;;;;;;33.20;21.07;;;8.10;91.50;;;;;;5053063;28;20232;-69
2021/10/10 00:14:16;;;;;;;33.17;20.17;;;8.00;91.70;;;;;;5052940;28;20206;-68
2021/10/10 00:16:43;;;;;;;33.40;20.53;;;8.10;91.70;;;;;;5056568;28;20202;-67
2021/10/10 00:19:12;;;;;;;36.00;21.37;;;8.10;91.70;;;;;;5064684;28;20208;-67
2021/10/10 00:21:38;;;;;;;34.23;22.97;;;8.00;91.70;;;;;;5066668;28;20202;-68
2021/10/10 00:24:05;;;;;;;40.13;24.77;;;8.00;91.80;;;;;;5052722;28;20269;-68
2021/10/10 00:26:32;;;;;;;36.83;23.47;;;8.00;92.00;;;;;;5052461;28;20238;-67
2021/10/10 00:28:59;;;;;;;42.37;25.97;;;7.90;92.10;;;;;;5053102;28;20202;-69
2021/10/10 00:31:26;;;;;;;41.27;27.40;;;7.90;92.50;;;;;;5065392;28;20685;-68
2021/10/10 00:33:53;;;;;;;41.60;26.70;;;7.90;92.70;;;;;;5052210;28;20209;-67
2021/10/10 00:36:21;;;;;;;44.97;27.73;;;7.80;92.90;;;;;;5053059;28;20260;-67
2021/10/10 00:38:48;;;;;;;47.57;29.20;;;7.90;93.10;;;;;;5060052;28;20202;-67
2021/10/10 00:41:15;;;;;;;50.77;30.10;;;7.70;93.20;;;;;;5062941;28;20220;-68
2021/10/10 00:43:42;;;;;;;48.57;29.03;;;7.70;93.50;;;;;;5055844;28;20581;-67
2021/10/10 00:46:09;;;;;;;51.67;29.57;;;7.70;93.80;;;;;;5054584;28;20210;-68
2021/10/10 00:48:35;;;;;;;47.57;30.33;;;7.70;94.00;;;;;;5063591;28;20214;-67
2021/10/10 00:51:02;;;;;;;56.63;30.30;;;7.60;94.20;;;;;;5053494;28;20544;-67
2021/10/10 00:53:32;;;;;;;46.13;28.90;;;7.60;94.40;;;;;;5063039;28;20214;-67
2021/10/10 00:56:00;;;;;;;51.60;29.80;;;7.50;94.50;;;;;;5052081;28;20202;-68
2021/10/10 00:58:27;;;;;;;48.23;29.83;;;7.50;94.70;;;;;;5051793;28;20209;-68
2021/10/10 01:00:55;;;;;;;58.43;32.77;;;7.50;94.90;;;;;;5059251;28;20655;-68
2021/10/10 01:03:22;;;;;;;45.50;29.93;;;7.40;95.20;;;;;;5066749;28;20248;-67
2021/10/10 01:05:49;;;;;;;48.90;29.87;;;7.30;95.40;;;;;;5058925;28;20210;-67
2021/10/10 01:08:18;;;;;;;44.80;27.70;;;7.30;95.60;;;;;;5052344;28;20213;-67
2021/10/10 01:10:48;;;;;;;46.03;27.40;;;7.30;95.70;;;;;;5058383;28;20308;-68
2021/10/10 01:13:15;;;;;;;46.30;28.33;;;7.30;95.70;;;;;;5069576;28;20546;-68
2021/10/10 01:15:43;;;;;;;48.70;27.60;;;7.20;95.90;;;;;;5055557;28;20218;-69
2021/10/10 01:18:09;;;;;;;46.40;26.37;;;7.20;96.00;;;;;;5059548;28;20208;-68
2021/10/10 01:20:44;;;;;;;41.33;25.33;;;7.20;96.20;;;;;;5061827;28;20209;-68
2021/10/10 01:23:11;;;;;;;38.20;24.97;;;7.20;96.30;;;;;;5059758;28;20205;-68
2021/10/10 01:25:39;;;;;;;38.70;24.77;;;7.20;95.90;;;;;;5059717;28;20552;-69
2021/10/10 01:28:06;;;;;;;40.40;24.87;;;7.20;95.80;;;;;;5073760;28;20233;-67
2021/10/10 01:30:33;;;;;;;35.30;23.07;;;7.10;95.60;;;;;;5055989;28;20574;-67
2021/10/10 01:33:00;;;;;;;35.10;21.77;;;7.20;95.60;;;;;;5068795;28;20225;-67
2021/10/10 01:35:27;;;;;;;37.87;22.83;;;7.20;95.60;;;;;;5057117;28;20216;-68
2021/10/10 01:37:56;;;;;;;39.83;22.57;;;7.20;95.50;;;;;;5055836;28;20518;-67
2021/10/10 01:40:23;;;;;;;36.10;22.13;;;7.20;95.40;;;;;;5054788;28;20567;-68
2021/10/10 01:42:49;;;;;;;35.83;21.90;;;7.20;95.20;;;;;;5055985;28;20212;-68
2021/10/10 01:45:18;;;;;;;35.17;22.33;;;7.20;95.20;;;;;;5070198;28;20225;-68
2021/10/10 01:47:45;;;;;;;35.57;22.63;;;7.20;95.50;;;;;;5057236;28;20210;-68
2021/10/10 01:50:12;;;;;;;40.60;23.37;;;7.10;95.10;;;;;;5063110;28;20228;-68
2021/10/10 01:52:46;;;;;;;36.33;22.53;;;7.10;95.10;;;;;;5069001;28;20225;-68
2021/10/10 01:55:14;;;;;;;34.27;23.00;;;7.20;95.30;;;;;;5055589;28;20202;-67
2021/10/10 01:57:41;;;;;;;35.53;22.27;;;7.20;95.20;;;;;;5055418;28;20214;-67
2021/10/10 02:00:10;;;;;;;37.70;20.93;;;7.10;95.20;;;;;;5066167;28;20287;-68
2021/10/10 02:02:37;;;;;;;34.47;21.27;;;7.10;95.10;;;;;;5068992;28;20571;-68
2021/10/10 02:05:05;;;;;;;33.23;20.50;;;7.10;95.00;;;;;;5066382;28;20220;-67
2021/10/10 02:07:32;;;;;;;33.20;22.00;;;7.10;95.00;;;;;;5055055;28;20249;-68
2021/10/10 02:09:59;;;;;;;34.87;21.60;;;7.10;94.90;;;;;;5066997;28;20209;-67
2021/10/10 02:12:27;;;;;;;34.90;21.37;;;7.10;95.00;;;;;;5055012;28;20236;-69
2021/10/10 02:14:54;;;;;;;34.83;21.07;;;7.00;95.00;;;;;;5055004;28;20248;-68
2021/10/10 02:17:21;;;;;;;35.20;20.13;;;7.00;94.90;;;;;;5057926;28;20568;-69
2021/10/10 02:19:48;;;;;;;32.53;21.00;;;7.00;95.00;;;;;;5069126;28;20642;-69
2021/10/10 02:22:14;;;;;;;34.27;21.80;;;7.00;94.90;;;;;;5054641;28;20198;-69
2021/10/10 02:24:41;;;;;;;33.67;20.67;;;6.90;95.00;;;;;;5054305;28;20210;-69
2021/10/10 02:27:08;;;;;;;33.00;22.47;;;6.90;95.20;;;;;;5064549;28;20239;-70
2021/10/10 02:29:36;;;;;;;38.13;24.07;;;6.90;95.30;;;;;;5072866;28;20205;-68
2021/10/10 02:32:03;;;;;;;38.63;24.27;;;6.80;95.40;;;;;;5055364;28;20218;-68
2021/10/10 02:34:30;;;;;;;41.90;24.53;;;6.90;95.50;;;;;;5061812;28;20710;-68
2021/10/10 02:36:57;;;;;;;43.40;26.17;;;6.80;95.70;;;;;;5054114;28;20233;-69
2021/10/10 02:39:24;;;;;;;40.20;26.43;;;6.80;95.80;;;;;;5055094;28;20228;-68
2021/10/10 02:41:51;;;;;;;43.77;25.63;;;6.90;96.00;;;;;;5054587;28;20208;-69
2021/10/10 02:44:17;;;;;;;44.47;26.90;;;6.80;96.00;;;;;;5054788;28;20571;-66
2021/10/10 02:46:48;;;;;;;42.70;25.70;;;6.80;96.30;;;;;;5064495;28;20201;-68
2021/10/10 02:49:15;;;;;;;43.83;24.70;;;6.70;96.40;;;;;;5055903;28;20202;-69
2021/10/10 02:51:42;;;;;;;36.50;20.50;;;6.80;96.50;;;;;;5063565;28;20201;-68
2021/10/10 02:54:09;;;;;;;33.43;20.87;;;6.70;96.30;;;;;;5059348;28;20213;-68
2021/10/10 02:56:36;;;;;;;30.90;18.90;;;6.70;96.20;;;;;;5054273;28;20206;-69
2021/10/10 02:59:03;;;;;;;28.47;18.70;;;6.70;96.10;;;;;;5061488;28;20200;-67
2021/10/10 03:01:30;;;;;;;30.70;19.03;;;6.70;95.90;;;;;;5065174;28;20567;-66
2021/10/10 03:03:59;;;;;;;29.07;18.10;;;6.70;95.80;;;;;;5053450;28;20213;-67
2021/10/10 03:06:25;;;;;;;34.63;18.53;;;6.70;95.70;;;;;;5054316;28;20206;-66
2021/10/10 03:08:52;;;;;;;29.73;18.80;;;6.70;95.60;;;;;;5055989;28;20589;-67
2021/10/10 03:11:19;;;;;;;29.57;18.60;;;6.70;95.40;;;;;;5068927;28;20540;-69
2021/10/10 03:13:46;;;;;;;31.10;18.57;;;6.70;95.40;;;;;;5059845;28;20225;-67
2021/10/10 03:16:13;;;;;;;27.93;18.23;;;6.70;95.40;;;;;;5060111;28;20209;-67
2021/10/10 03:18:40;;;;;;;28.13;17.97;;;6.70;95.40;;;;;;5060370;28;20213;-67
2021/10/10 03:21:08;;;;;;;29.27;18.63;;;6.70;95.40;;;;;;5053222;28;20206;-67
2021/10/10 03:23:35;;;;;;;27.60;17.20;;;6.70;95.40;;;;;;5053570;28;20271;-68
2021/10/10 03:26:02;;;;;;;27.10;16.53;;;6.70;95.30;;;;;;5058561;28;20205;-67
2021/10/10 03:28:29;;;;;;;29.77;16.47;;;6.70;95.20;;;;;;5062200;28;20336;-68
2021/10/10 03:30:55;;;;;;;25.87;15.80;;;6.70;95.10;;;;;;5063071;28;20280;-68
2021/10/10 03:33:22;;;;;;;25.63;16.03;;;6.70;95.00;;;;;;5057475;28;20252;-67
2021/10/10 03:35:49;;;;;;;25.13;15.23;;;6.80;94.90;;;;;;5053749;28;20229;-68
2021/10/10 03:38:17;;;;;;;28.90;15.73;;;6.80;94.80;;;;;;5057070;28;20206;-67
2021/10/10 03:40:44;;;;;;;22.20;15.50;;;6.80;94.60;;;;;;5053651;28;20209;-67
2021/10/10 03:43:11;;;;;;;25.53;15.80;;;6.70;94.40;;;;;;5052613;28;20206;-68
2021/10/10 03:45:38;;;;;;;22.80;14.70;;;6.80;94.40;;;;;;5056112;28;20223;-68
2021/10/10 03:48:05;;;;;;;24.63;15.80;;;6.70;94.40;;;;;;5070240;28;20213;-68
2021/10/10 03:50:32;;;;;;;24.80;15.67;;;6.70;94.40;;;;;;5059041;28;20555;-67
2021/10/10 03:52:59;;;;;;;26.23;15.00;;;6.70;94.30;;;;;;5072605;28;20227;-68
2021/10/10 03:55:29;;;;;;;22.17;13.90;;;6.80;94.30;;;;;;5061444;28;20205;-68
2021/10/10 03:57:56;;;;;;;22.03;14.47;;;6.80;94.20;;;;;;5057273;28;20210;-68
2021/10/10 04:00:23;;;;;;;24.17;13.83;;;6.80;94.10;;;;;;5052802;28;20256;-67
2021/10/10 04:02:50;;;;;;;19.87;13.03;;;6.80;94.00;;;;;;5052938;28;20220;-68
2021/10/10 04:05:23;;;;;;;18.70;12.87;;;6.80;94.00;;;;;;5052890;28;20595;-69
2021/10/10 04:07:50;;;;;;;18.77;12.10;;;6.80;93.90;;;;;;5058135;28;20201;-68
2021/10/10 04:10:18;;;;;;;18.17;11.60;;;6.80;93.80;;;;;;5052870;28;20198;-67
2021/10/10 04:12:46;;;;;;;19.37;11.80;;;6.80;93.70;;;;;;5052154;28;20234;-66
2021/10/10 04:15:13;;;;;;;19.43;12.10;;;6.90;93.50;;;;;;5051887;28;20202;-67
2021/10/10 04:17:41;;;;;;;21.77;11.37;;;6.80;93.40;;;;;;5067189;28;20644;-67
2021/10/10 04:20:09;;;;;;;17.97;11.40;;;6.80;93.30;;;;;;5058398;28;20193;-67
2021/10/10 04:22:36;;;;;;;16.00;10.83;;;6.80;93.20;;;;;;5062134;28;20202;-68
2021/10/10 04:25:04;;;;;;;16.83;11.47;;;6.80;93.00;;;;;;5052429;28;20206;-68
2021/10/10 04:27:32;;;;;;;16.90;11.47;;;6.90;92.90;;;;;;5065751;28;20320;-67
2021/10/10 04:30:00;;;;;;;16.43;10.80;;;6.90;92.80;;;;;;5058613;28;20212;-67
2021/10/10 04:32:27;;;;;;;14.80;10.37;;;6.90;92.80;;;;;;5061454;28;20536;-67
2021/10/10 04:34:54;;;;;;;17.33;11.80;;;6.90;92.60;;;;;;5057939;28;20682;-68
2021/10/10 04:37:21;;;;;;;15.67;10.67;;;6.90;92.50;;;;;;5055661;28;20236;-68
2021/10/10 04:39:48;;;;;;;17.30;11.07;;;7.00;92.30;;;;;;5052998;28;20216;-69
2021/10/10 04:42:15;;;;;;;17.63;11.03;;;7.00;92.20;;;;;;5052253;28;20209;-69
2021/10/10 04:44:42;;;;;;;18.57;10.90;;;7.00;92.10;;;;;;5056299;28;20237;-68
2021/10/10 04:47:10;;;;;;;15.20;10.30;;;7.00;91.90;;;;;;5065077;28;20217;-68
2021/10/10 04:49:37;;;;;;;15.47;10.43;;;7.00;91.80;;;;;;5066952;28;20201;-68
2021/10/10 04:52:05;;;;;;;17.43;11.00;;;8.20;92.30;;;;;;5068276;28;20204;-68
2021/10/10 04:54:33;;;;;;;15.83;10.83;;;7.00;91.80;;;;;;5059025;28;20693;-67
2021/10/10 04:57:00;;;;;;;19.47;11.03;;;7.00;91.80;;;;;;5060284;28;20642;-67
2021/10/10 04:59:26;;;;;;;17.43;10.20;;;7.00;91.80;;;;;;5055856;28;20209;-67
2021/10/10 05:01:53;;;;;;;18.40;10.90;;;7.00;92.00;;;;;;5060455;28;20202;-67
2021/10/10 05:04:21;;;;;;;16.17;10.43;;;7.00;91.90;;;;;;5061831;28;20211;-66
2021/10/10 05:06:48;;;;;;;16.27;10.27;;;7.00;91.80;;;;;;5057276;28;20209;-67
2021/10/10 05:09:15;;;;;;;14.90;10.33;;;7.00;91.70;;;;;;5062363;28;20201;-68
2021/10/10 05:11:42;;;;;;;15.47;9.30;;;7.00;91.60;;;;;;5069946;28;20208;-66
2021/10/10 05:14:09;;;;;;;14.50;9.47;;;7.00;91.20;;;;;;5065463;28;20690;-67
2021/10/10 05:16:35;;;;;;;16.23;10.33;;;7.10;91.20;;;;;;5065267;28;20205;-67
2021/10/10 05:19:02;;;;;;;17.87;10.53;;;7.10;91.20;;;;;;5055556;28;20655;-67
2021/10/10 05:21:30;;;;;;;16.17;10.47;;;7.10;91.20;;;;;;5071227;28;20211;-68
2021/10/10 05:23:58;;;;;;;17.70;11.03;;;7.10;91.00;;;;;;5067596;28;20212;-68
2021/10/10 05:26:25;;;;;;;17.47;9.77;;;7.10;90.90;;;;;;5058518;28;20236;-67
2021/10/10 05:28:51;;;;;;;16.07;9.70;;;7.20;90.90;;;;;;5065655;28;20722;-68
2021/10/10 05:31:18;;;;;;;16.93;9.93;;;7.20;90.70;;;;;;5074302;28;20216;-69
2021/10/10 05:33:45;;;;;;;13.63;9.30;;;7.20;90.50;;;;;;5073048;28;20333;-69
2021/10/10 05:36:12;;;;;;;15.83;9.90;;;7.30;90.40;;;;;;5062107;28;20221;-69
2021/10/10 05:38:40;;;;;;;13.33;10.03;;;7.30;90.20;;;;;;5065333;28;20209;-69
2021/10/10 05:41:07;;;;;;;16.73;9.33;;;7.50;90.00;;;;;;5056261;28;20202;-69
2021/10/10 05:43:34;;;;;;;14.40;9.63;;;7.50;89.40;;;;;;5072553;28;20251;-69
2021/10/10 05:46:01;;;;;;;12.87;9.47;;;7.60;88.90;;;;;;5056122;28;20220;-68
2021/10/10 05:48:28;;;;;;;14.27;9.03;;;7.60;88.50;;;;;;5070615;28;20216;-70
2021/10/10 05:50:55;;;;;;;14.03;8.63;;;7.50;88.40;;;;;;5070265;28;20208;-69
2021/10/10 05:53:23;;;;;;;15.57;9.70;;;7.50;88.40;;;;;;5061965;28;20609;-68
2021/10/10 05:55:55;;;;;;;14.13;9.33;;;7.60;88.20;;;;;;5054445;28;20202;-70
2021/10/10 05:58:21;;;;;;;15.70;8.80;;;7.60;88.10;;;;;;5054876;28;20655;-70
2021/10/10 06:00:48;;;;;;;13.73;9.03;;;7.60;87.80;;;;;;5064965;28;20527;-71
2021/10/10 06:03:15;;;;;;;12.83;8.87;;;7.60;87.50;;;;;;5066018;28;20595;-70
2021/10/10 06:05:42;;;;;;;12.73;8.70;;;7.70;87.40;;;;;;5070939;28;20202;-69
2021/10/10 06:08:09;;;;;;;13.53;8.43;;;7.90;87.10;;;;;;5069210;28;20201;-70
2021/10/10 06:10:37;;;;;;;12.30;8.77;;;8.00;86.70;;;;;;5065865;28;20634;-68
2021/10/10 06:13:06;;;;;;;15.17;8.83;;;8.00;86.10;;;;;;5068337;28;20228;-67
2021/10/10 06:15:34;;;;;;;10.73;7.53;;;8.10;85.60;;;;;;5069174;28;20647;-67
2021/10/10 06:18:01;;;;;;;11.03;7.97;;;8.20;85.20;;;;;;5068567;28;20244;-68
2021/10/10 06:20:28;;;;;;;13.63;8.57;;;8.20;84.20;;;;;;5075004;28;20646;-68
2021/10/10 06:22:55;;;;;;;13.50;9.03;;;8.30;84.20;;;;;;5065013;28;20210;-66
2021/10/10 06:25:22;;;;;;;14.43;7.90;;;8.30;84.10;;;;;;5069597;28;20216;-68
2021/10/10 06:27:49;;;;;;;12.00;7.90;;;8.50;84.00;;;;;;5059397;28;20257;-67
2021/10/10 06:30:17;;;;;;;10.47;7.60;;;8.60;83.50;;;;;;5070487;28;20309;-68
2021/10/10 06:32:44;;;;;;;10.50;7.50;;;8.70;83.10;;;;;;5055891;28;20206;-68
2021/10/10 06:35:11;;;;;;;12.47;8.37;;;8.80;82.20;;;;;;5073520;28;20710;-71
2021/10/10 06:37:38;;;;;;;11.23;8.50;;;8.80;81.70;;;;;;5062660;28;20321;-69
2021/10/10 06:40:06;;;;;;;13.80;8.93;;;8.90;81.20;;;;;;5073603;28;20211;-70
2021/10/10 06:42:33;;;;;;;12.67;7.83;;;9.00;80.90;;;;;;5071201;28;20304;-69
2021/10/10 06:45:00;;;;;;;10.73;7.60;;;9.00;80.50;;;;;;5058547;28;20293;-69
2021/10/10 06:47:28;;;;;;;12.33;7.80;;;9.00;80.00;;;;;;5074395;28;20237;-67
2021/10/10 06:49:55;;;;;;;14.17;8.00;;;9.10;80.00;;;;;;5062953;28;20210;-68
2021/10/10 06:52:22;;;;;;;11.97;8.20;;;9.20;79.80;;;;;;5069291;28;20213;-70
2021/10/10 06:54:48;;;;;;;14.60;8.03;;;9.40;79.20;;;;;;5054146;28;20738;-69
2021/10/10 06:57:15;;;;;;;13.57;8.23;;;9.40;78.40;;;;;;5053650;28;20209;-70
2021/10/10 06:59:42;;;;;;;13.70;7.93;;;9.50;78.00;;;;;;5055681;28;20293;-69
2021/10/10 07:02:10;;;;;;;12.13;8.07;;;9.60;78.00;;;;;;5054066;28;20206;-71
2021/10/10 07:04:39;;;;;;;12.90;8.20;;;9.70;77.60;;;;;;5062827;28;20194;-71
2021/10/10 07:07:06;;;;;;;18.27;8.63;;;10.10;77.90;;;;;;5057326;28;20220;-69
2021/10/10 07:09:33;;;;;;;13.17;7.83;;;10.70;75.20;;;;;;5054620;28;20208;-70
2021/10/10 07:12:00;;;;;;;14.10;8.73;;;10.90;73.40;;;;;;5054738;28;20266;-68
2021/10/10 07:14:27;;;;;;;13.50;8.00;;;10.90;72.80;;;;;;5068454;28;20783;-69
2021/10/10 07:16:53;;;;;;;14.27;8.70;;;10.90;72.50;;;;;;5057668;28;20540;-68
2021/10/10 07:19:24;;;;;;;16.13;8.17;;;10.80;72.10;;;;;;5060839;28;20268;-69
2021/10/10 07:21:59;;;;;;;12.30;8.60;;;10.80;71.90;;;;;;5073947;28;20217;-70
2021/10/10 07:27:10;;;;;;;11.50;8.80;;;10.80;71.40;;;;;;5062704;28;20607;-68
2021/10/10 07:29:37;;;;;;;12.27;8.33;;;10.90;71.20;;;;;;5066538;28;20658;-69
2021/10/10 07:32:05;;;;;;;11.10;8.63;;;11.10;71.30;;;;;;5070662;28;20296;-69
2021/10/10 07:34:31;;;;;;;12.70;9.30;;;11.20;70.80;;;;;;5064353;28;20594;-69
2021/10/10 07:37:00;;;;;;;10.87;7.87;;;11.40;70.80;;;;;;5068827;28;20255;-70
2021/10/10 07:39:27;;;;;;;11.87;7.60;;;11.60;70.40;;;;;;5066494;28;20269;-68
2021/10/10 07:41:54;;;;;;;10.20;7.53;;;11.70;69.30;;;;;;5073335;28;20215;-70
2021/10/10 07:44:23;;;;;;;10.63;7.00;;;11.80;68.80;;;;;;5056339;28;20205;-70
2021/10/10 07:46:57;;;;;;;9.97;6.97;;;11.90;68.40;;;;;;5066179;28;20668;-68
2021/10/10 07:49:24;;;;;;;10.60;7.53;;;11.90;67.60;;;;;;5054789;28;20220;-68
2021/10/10 07:51:50;;;;;;;15.10;7.70;;;12.00;67.10;;;;;;5066560;28;20212;-69
2021/10/10 07:54:20;;;;;;;10.40;7.73;;;12.10;66.80;;;;;;5059321;28;20308;-69
2021/10/10 07:56:47;;;;;;;10.70;7.77;;;12.30;66.70;;;;;;5053549;28;20263;-70
2021/10/10 07:59:14;;;;;;;10.37;7.77;;;12.40;66.60;;;;;;5051782;28;20206;-70
2021/10/10 08:01:41;;;;;;;10.70;8.07;;;12.50;65.80;;;;;;5063765;28;20214;-68
2021/10/10 08:04:08;;;;;;;12.90;7.40;;;12.60;64.90;;;;;;5062600;28;20201;-69
2021/10/10 08:06:35;;;;;;;11.03;7.23;;;12.70;64.60;;;;;;5064764;28;20297;-70
2021/10/10 08:09:01;;;;;;;9.37;7.23;;;12.80;64.20;;;;;;5060451;28;20197;-69
2021/10/10 08:11:30;;;;;;;11.53;7.97;;;12.90;63.70;;;;;;5068099;28;20206;-68
2021/10/10 08:13:57;;;;;;;11.07;7.17;;;13.00;63.20;;;;;;5061206;28;20217;-68
2021/10/10 08:16:23;;;;;;;10.67;6.80;;;13.20;62.90;;;;;;5066531;28;20213;-69
2021/10/10 08:18:50;;;;;;;10.90;7.63;;;13.30;62.30;;;;;;5060464;28;20212;-68
2021/10/10 08:21:17;;;;;;;11.93;7.57;;;13.40;61.50;;;;;;5072440;28;20205;-69
2021/10/10 08:23:44;;;;;;;10.83;7.40;;;13.50;60.90;;;;;;5053015;28;20210;-69
2021/10/10 08:26:11;;;;;;;11.23;7.50;;;13.50;60.40;;;;;;5060623;28;20202;-69
2021/10/10 08:28:40;;;;;;;10.93;7.30;;;13.60;60.10;;;;;;5062702;28;20202;-68
2021/10/10 08:31:07;;;;;;;11.00;7.43;;;13.70;60.00;;;;;;5059841;28;20201;-68
2021/10/10 08:33:34;;;;;;;15.50;8.27;;;13.80;59.80;;;;;;5055151;28;20255;-68
2021/10/10 08:36:02;;;;;;;10.80;8.17;;;14.00;59.80;;;;;;5071155;28;20321;-68
2021/10/10 08:38:29;;;;;;;12.87;7.83;;;14.10;59.40;;;;;;5063170;28;20302;-70
2021/10/10 08:40:57;;;;;;;13.13;8.10;;;14.30;58.60;;;;;;5062319;28;20308;-69
2021/10/10 08:43:25;;;;;;;10.23;8.07;;;14.40;58.60;;;;;;5052671;28;20221;-68
2021/10/10 08:45:54;;;;;;;11.47;8.33;;;14.60;58.20;;;;;;5068594;28;20197;-70
2021/10/10 08:48:21;;;;;;;13.80;9.00;;;14.70;58.10;;;;;;5059892;28;20301;-73
2021/10/10 08:50:49;;;;;;;12.00;8.35;;;14.90;59.20;;;;;;5066725;28;20450;-72
2021/10/10 08:53:20;;;;;;;13.00;8.37;;;15.40;58.10;;;;;;5066450;28;20210;-72
2021/10/10 08:55:47;;;;;;;11.10;8.73;;;16.90;58.60;;;;;;5052714;28;20498;-72
2021/10/10 08:58:17;;;;;;;10.50;8.23;;;19.80;53.40;;;;;;5054022;28;20275;-73
2021/10/10 09:00:48;;;;;;;10.35;7.90;;;23.10;48.20;;;;;;5053035;28;20210;-72
2021/10/10 09:03:17;;;;;;;8.90;7.03;;;26.30;41.20;;;;;;5054708;28;20209;-72
2021/10/10 09:05:44;;;;;;;11.45;7.55;;;28.30;36.70;;;;;;5060636;28;20210;-73
2021/10/10 09:08:11;;;;;;;10.73;7.97;;;29.60;34.10;;;;;;5069234;28;20205;-72
2021/10/10 09:10:38;;;;;;;9.55;6.95;;;30.70;32.30;;;;;;5060436;28;20290;-72
2021/10/10 09:13:07;;;;;;;11.32;7.53;;;31.80;30.80;;;;;;5054495;28;20268;-73
2021/10/10 09:15:34;;;;;;;8.57;6.90;;;32.70;29.80;;;;;;5066587;28;20232;-72
2021/10/10 09:18:03;;;;;;;8.93;7.40;;;33.60;28.80;;;;;;5064327;28;20208;-72
2021/10/10 09:20:34;;;;;;;11.20;6.60;;;34.20;28.20;;;;;;5072508;28;20216;-74
2021/10/10 09:23:03;;;;;;;7.68;5.50;;;34.90;27.30;;;;;;5069433;28;20292;-73
2021/10/10 09:25:30;;;;;;;5.68;5.07;;;35.40;26.60;;;;;;5066467;28;20211;-73
2021/10/10 09:28:03;;;;;;;6.18;4.50;;;36.00;25.60;;;;;;5067471;28;20792;-76
2021/10/10 09:30:48;;;;;;;5.93;4.50;;;36.70;25.20;;;;;;5061959;28;20229;-75
2021/10/10 09:33:15;;;;;;;7.00;4.82;;;37.70;24.50;;;;;;5076552;28;20279;-74
2021/10/10 09:35:44;;;;;;;4.97;4.18;;;38.50;23.90;;;;;;5069215;28;20358;-74
2021/10/10 09:38:15;;;;;;;4.53;3.53;;;39.10;23.20;;;;;;5059038;28;20202;-75
2021/10/10 09:40:50;;;;;;;5.55;4.03;;;39.00;22.80;;;;;;5072560;28;20209;-72
2021/10/10 09:43:18;;;;;;;5.05;3.75;;;39.10;22.50;;;;;;5075993;28;20201;-72
2021/10/10 09:45:53;;;;;;;5.57;3.38;;;39.80;22.20;;;;;;5070571;28;20209;-71
2021/10/10 09:48:32;;;;;;;8.27;3.53;;;40.10;21.60;;;;;;5069033;28;20616;-71
2021/10/10 09:51:01;;;;;;;5.55;3.65;;;39.70;21.70;;;;;;5076405;28;20213;-74
2021/10/10 09:53:31;;;;;;;5.07;4.13;;;39.50;21.60;;;;;;5075435;28;20215;-72
2021/10/10 09:56:00;;;;;;;5.40;4.32;;;39.70;21.50;;;;;;5059087;28;20261;-72
2021/10/10 09:58:38;;;;;;;6.40;4.47;;;39.80;21.50;;;;;;5059429;28;20216;-71
2021/10/10 10:01:18;;;;;;;7.18;4.28;;;40.10;21.30;;;;;;5057496;28;20206;-73
2021/10/10 10:04:01;;;;;;;6.25;4.28;;;41.10;21.20;;;;;;5060627;28;20202;-73
2021/10/10 10:06:31;;;;;;;4.35;3.95;;;41.80;20.70;;;;;;5061722;28;20201;-72
2021/10/10 10:09:02;;;;;;;5.32;3.60;;;42.10;20.50;;;;;;5068560;28;20224;-72
2021/10/10 10:11:31;;;;;;;6.65;4.13;;;41.80;20.30;;;;;;5066181;28;20555;-71
2021/10/10 10:14:04;;;;;;;7.10;4.22;;;41.30;20.50;;;;;;5059614;28;20260;-73
2021/10/10 10:16:32;;;;;;;3.58;3.28;;;41.80;20.60;;;;;;5056765;28;20208;-73
2021/10/10 10:19:00;;;;;;;6.82;3.85;;;42.30;20.30;;;;;;5060696;28;20212;-73
2021/10/10 10:21:29;;;;;;;4.55;3.75;;;42.60;20.20;;;;;;5058891;28;20248;-73
2021/10/10 10:24:00;;;;;;;5.05;3.38;;;42.70;19.90;;;;;;5058680;28;20297;-72
2021/10/10 10:26:30;;;;;;;5.22;3.45;;;42.40;19.80;;;;;;5057118;28;20206;-72
2021/10/10 10:28:58;;;;;;;4.82;3.00;;;42.30;19.80;;;;;;5059295;28;20237;-73
2021/10/10 10:31:25;;;;;;;4.50;3.20;;;42.70;19.60;;;;;;5063663;28;20293;-72
2021/10/10 10:33:54;;;;;;;5.35;2.80;;;43.20;19.30;;;;;;5062854;28;20204;-73
2021/10/10 10:36:57;;;;;;;5.75;3.00;;;43.90;19.10;;;;;;5075351;28;20225;-73
2021/10/10 10:39:44;;;;;;;3.60;2.95;;;44.40;18.80;;;;;;5065231;28;20254;-72
2021/10/10 10:42:11;;;;;;;3.55;2.72;;;44.70;19.10;;;;;;5075521;28;20246;-74
2021/10/10 10:44:48;;;;;;;3.30;2.55;;;45.10;18.40;;;;;;5075892;28;20200;-72
2021/10/10 10:47:17;;;;;;;3.80;2.80;;;44.70;18.00;;;;;;5073852;28;20656;-73
2021/10/10 10:50:13;;;;;;;2.78;2.00;;;44.20;18.30;;;;;;5061484;28;20213;-74
2021/10/10 10:52:43;;;;;;;3.63;2.60;;;44.30;18.20;;;;;;5063227;28;20625;-73
2021/10/10 10:55:18;;;;;;;3.13;2.00;;;44.00;18.20;;;;;;5061215;28;20697;-73
2021/10/10 10:57:51;;;;;;;2.88;2.30;;;44.00;18.20;;;;;;5062864;28;20247;-73
2021/10/10 11:00:24;;;;;;;3.72;2.50;;;43.30;18.10;;;;;;5055944;28;20210;-73
2021/10/10 11:02:59;;;;;;;3.47;2.42;;;42.50;18.40;;;;;;5059819;28;20282;-72
2021/10/10 11:05:37;;;;;;;2.65;2.40;;;42.30;18.80;;;;;;5063553;28;20288;-72
2021/10/10 11:08:07;;;;;;;3.55;2.25;;;43.30;18.60;;;;;;5062545;28;20296;-72
2021/10/10 11:10:36;;;;;;;2.97;2.47;;;43.70;18.70;;;;;;5075542;28;20292;-72
2021/10/10 11:13:23;;;;;;;4.13;2.35;;;44.50;18.40;;;;;;5075083;28;20629;-73
2021/10/10 11:15:50;;;;;;;4.45;2.83;;;44.70;18.20;;;;;;5066946;28;20255;-71
2021/10/10 11:18:18;;;;;;;4.38;3.33;;;44.80;18.00;;;;;;5072354;28;20201;-72
2021/10/10 11:20:50;;;;;;;5.22;2.95;;;45.10;18.10;;;;;;5071344;28;20275;-72
2021/10/10 11:23:18;;;;;;;3.65;2.95;;;45.50;17.90;;;;;;5057865;28;20204;-72
2021/10/10 11:25:49;;;;;;;3.78;3.25;;;45.80;18.00;;;;;;5072052;28;20201;-72
2021/10/10 11:28:16;;;;;;;4.70;2.88;;;46.00;18.20;;;;;;5058048;28;20697;-72
2021/10/10 11:30:43;;;;;;;3.33;3.00;;;45.90;17.70;;;;;;5064460;28;20209;-73
2021/10/10 11:33:10;;;;;;;3.40;3.10;;;46.20;17.60;;;;;;5070628;28;20645;-73
2021/10/10 11:35:42;;;;;;;3.72;3.30;;;45.80;17.70;;;;;;5073847;28;20257;-71
2021/10/10 11:38:12;;;;;;;3.47;3.10;;;45.50;17.90;;;;;;5066030;28;20275;-71
2021/10/10 11:40:58;;;;;;;4.43;3.25;;;46.20;17.70;;;;;;5070425;28;20212;-72
2021/10/10 11:43:25;;;;;;;3.97;3.35;;;46.50;17.20;;;;;;5073002;28;20239;-72
2021/10/10 11:45:56;;;;;;;5.45;3.55;;;45.90;17.50;;;;;;5064705;28;20198;-72
2021/10/10 11:48:36;;;;;;;4.32;2.95;;;46.10;17.70;;;;;;5067648;28;20690;-71
2021/10/10 11:51:03;;;;;;;4.57;3.47;;;47.00;17.50;;;;;;5063638;28;20235;-73
2021/10/10 11:53:41;;;;;;;3.55;3.25;;;47.50;17.10;;;;;;5054626;28;20292;-72
2021/10/10 11:56:09;;;;;;;5.25;3.40;;;46.30;17.40;;;;;;5064189;28;20209;-71
2021/10/10 11:58:36;;;;;;;8.13;3.80;;;46.00;17.80;;;;;;5072684;28;20733;-72
2021/10/10 12:01:10;;;;;;;5.43;3.47;;;45.40;17.80;;;;;;5059697;28;20240;-72
2021/10/10 12:03:45;;;;;;;5.00;3.13;;;45.60;17.90;;;;;;5065502;28;20561;-73
2021/10/10 12:06:20;;;;;;;3.80;3.10;;;45.50;17.90;;;;;;5070431;28;20219;-72
2021/10/10 12:08:47;;;;;;;3.00;2.72;;;46.30;17.70;;;;;;5070967;28;20230;-74
2021/10/10 12:11:16;;;;;;;3.45;2.35;;;46.70;17.30;;;;;;5073916;28;20635;-72
2021/10/10 12:13:56;;;;;;;3.90;2.30;;;45.90;17.40;;;;;;5072770;28;20664;-72
2021/10/10 12:16:23;;;;;;;3.65;2.60;;;45.40;17.70;;;;;;5066470;28;20220;-72
2021/10/10 12:18:57;;;;;;;4.72;2.47;;;45.10;17.70;;;;;;5065722;28;20283;-73
2021/10/10 12:21:27;;;;;;;4.07;2.30;;;44.50;17.60;;;;;;5073233;28;20217;-73
2021/10/10 12:24:11;;;;;;;3.78;2.70;;;44.40;17.90;;;;;;5066322;28;20208;-74
2021/10/10 12:26:48;;;;;;;4.03;2.55;;;44.00;17.90;;;;;;5068591;28;20713;-73
2021/10/10 12:29:23;;;;;;;2.47;2.22;;;43.20;18.00;;;;;;5066772;28;20714;-72
2021/10/10 12:31:50;;;;;;;2.60;2.40;;;42.80;18.40;;;;;;5065049;28;20677;-73
2021/10/10 12:34:17;;;;;;;4.57;2.55;;;42.90;18.30;;;;;;5074125;28;20205;-72
2021/10/10 12:36:45;;;;;;;4.90;2.85;;;42.60;18.10;;;;;;5071484;28;20670;-71
2021/10/10 12:39:12;;;;;;;6.78;2.70;;;42.40;18.60;;;;;;5061394;28;20265;-71
2021/10/10 12:41:39;;;;;;;3.03;2.67;;;43.10;18.60;;;;;;5067513;28;20632;-70
2021/10/10 12:44:16;;;;;;;5.05;2.67;;;44.10;18.10;;;;;;5073023;28;20216;-70
2021/10/10 12:46:51;;;;;;;2.50;2.30;;;43.60;18.00;;;;;;5065820;28;20737;-70
2021/10/10 12:49:29;;;;;;;3.13;2.70;;;42.40;18.20;;;;;;5060222;28;20223;-69
2021/10/10 12:51:57;;;;;;;4.20;2.58;;;39.80;18.80;;;;;;5067224;28;20205;-69